Terminal Aerodrome Forecast
Issued by NWS Albuquerque, NM

Home | Current Version | Previous Version | Text Only | Print | Product List | Glossary On
Versions: 1 2 3 4 5 6 7 8 9 10 11 12 13
000
FTUS45 KABQ 230825 AAB
TAFABQ
TAF AMD
KABQ 230825Z 2308/2406 14008KT P6SM -SHRA OVC090
     FM231300 17012G20KT P6SM VCSH OVC080
     FM231800 19018G28KT P6SM VCSH BKN080
      TEMPO 2322/2402 -SHRA BKN050
     FM240200 12008KT P6SM VCSH SCT050 BKN080
     FM240500 VRB05KT P6SM SCT050=

USA.gov is the U.S. government's official web portal to all federal, state and local government web resources and services.